Rejestracja

Wszystkie dane podawane są w czasie UTC za wyjątkiem miejsc gdzie jest jednoznacznie podane, że jest inaczej. Dane podawane w serwisie mają charakter informacyjny!!!
Informacje w sprawie dostępu do serwisu pod numerem tel. +48 261-828-138
Informacja dla żołnierzy i pracowników wojska: Prosimy o niezwłoczną zmianę adresu e-mail w profilu użytkownika na pocztę w domenie @ron.mil.pl

Aktualna Pogoda
 
Pogoda w Polsce
9°C Szczecin 10°C Suwałki 12°C Warszawa 11°C Poznan
12°C Opole 13°C Kraków 14°C Rzeszów
Więcej miast w Polsce

Pogoda w Europie
10°C Berlin 13°C Paryz 11°C Bruksela 9°C Oslo
10°C Praga 16°C Zagrzeb
Więcej miast w Europie

Metary wojskowe test
METAR EPBC 260500Z 24003KT 9999 BKN042 12/08 Q1013=
METAR EPCE 260530Z 24010KT 9999 BKN035 11/07 Q1010 RMK 105 080 7/7=
METAR EPDA 260530Z 23010KT 200V280 9999 SCT019 OVC027 11/08 Q1011 RMK 111 080 8/4=
METAR EPDE 260530Z 25004KT CAVOK 13/10 Q1014 RMK 130 080 4/4=
METAR EPIR 260500Z 23010KT 9999 BKN047 12/06 Q1013 RMK 123 067 7/7=
METAR EPKS 260530Z 24007KT 9999 BKN040 12/09 Q1014 RMK 115 082 7/7=
METAR EPLK 260500Z /////KT 9999 FEW050 12/09 Q1015 RMK 116 084 2/2=
METAR EPLY 260500Z 25004KT 9999 BKN040 11/09 Q1015 RMK 114 087 6/6=
METAR EPMB 260530Z 26009KT 9999 OVC045 12/09 Q1011 RMK 120 080 8/8=
METAR EPMI 260500Z 25006KT 210V280 9999 SCT014 BKN200 11/07 Q1013 RMK 107 079 5/4=
METAR EPMM 260530Z 27004KT 9999 BKN040 12/10 Q1013 RMK 121 089 6/6=
METAR EPOK 260530Z 26012KT 210V280 9999 SCT023 BKN234 12/07 Q1009 RMK 118 071 7/3=
METAR EPPR 260500Z 22002KT 9999 OVC026 12/09 Q1011 RMK 118 080 8/8=
METAR EPPW 260530Z 24008KT 9999 BKN040 12/09 Q1014 RMK 117 081 7/7=
METAR EPSN 260500Z 25009KT 9999 BKN033 10/07 Q1012 RMK 100 081 7/7=
METAR EPTM 260500Z AUTO 28004KT 12/08 Q1014 RMK 122 074 ///=


 

Prawa autorskie©2007 SSH SZ RP. Wszelkie prawa zastrzeżone.